sensor_id;sensor_type;location;lat;lon;timestamp;pressure;altitude;pressure_sealevel;temperature;humidity
12973;BME280;6551;51.056;9.466;2023-02-15T00:01:59;98972.75;;;13.33;50.94
12973;BME280;6551;51.056;9.466;2023-02-15T00:04:26;98967.44;;;13.39;50.35
12973;BME280;6551;51.056;9.466;2023-02-15T00:07:15;98973.38;;;13.41;50.39
12973;BME280;6551;51.056;9.466;2023-02-15T00:09:42;98970.94;;;13.40;50.19
12973;BME280;6551;51.056;9.466;2023-02-15T00:12:09;98971.75;;;13.40;50.61
12973;BME280;6551;51.056;9.466;2023-02-15T00:14:36;98971.97;;;13.32;50.28
12973;BME280;6551;51.056;9.466;2023-02-15T00:17:02;98973.00;;;13.38;50.59
12973;BME280;6551;51.056;9.466;2023-02-15T00:19:28;98977.09;;;13.34;50.21
12973;BME280;6551;51.056;9.466;2023-02-15T00:21:54;98978.34;;;13.38;50.34
12973;BME280;6551;51.056;9.466;2023-02-15T00:24:20;98979.38;;;13.37;49.71
12973;BME280;6551;51.056;9.466;2023-02-15T00:26:47;98976.88;;;13.42;49.90
12973;BME280;6551;51.056;9.466;2023-02-15T00:29:14;98969.28;;;13.45;49.53
12973;BME280;6551;51.056;9.466;2023-02-15T00:31:42;98970.91;;;13.20;49.23
12973;BME280;6551;51.056;9.466;2023-02-15T00:34:12;98965.69;;;13.06;48.87
12973;BME280;6551;51.056;9.466;2023-02-15T00:36:41;98957.38;;;12.74;51.14
12973;BME280;6551;51.056;9.466;2023-02-15T00:39:10;98945.56;;;12.08;53.06
12973;BME280;6551;51.056;9.466;2023-02-15T00:41:38;98949.50;;;11.57;49.76
12973;BME280;6551;51.056;9.466;2023-02-15T00:44:05;98947.88;;;11.35;54.86
12973;BME280;6551;51.056;9.466;2023-02-15T00:46:32;98947.13;;;10.77;52.88
12973;BME280;6551;51.056;9.466;2023-02-15T00:48:58;98953.69;;;10.81;56.61
12973;BME280;6551;51.056;9.466;2023-02-15T00:51:26;98948.06;;;11.12;56.36
12973;BME280;6551;51.056;9.466;2023-02-15T00:53:52;98946.44;;;11.32;53.37
12973;BME280;6551;51.056;9.466;2023-02-15T00:56:18;98945.25;;;10.42;50.34
12973;BME280;6551;51.056;9.466;2023-02-15T00:58:45;98940.25;;;9.51;53.23
12973;BME280;6551;51.056;9.466;2023-02-15T01:01:21;98943.25;;;8.88;56.35
12973;BME280;6551;51.056;9.466;2023-02-15T01:03:47;98934.09;;;7.82;56.18
12973;BME280;6551;51.056;9.466;2023-02-15T01:06:15;98935.50;;;7.38;61.25
12973;BME280;6551;51.056;9.466;2023-02-15T01:08:42;98937.25;;;7.78;64.05
12973;BME280;6551;51.056;9.466;2023-02-15T01:11:13;98936.25;;;8.34;62.48
12973;BME280;6551;51.056;9.466;2023-02-15T01:13:41;98932.38;;;8.98;62.41
12973;BME280;6551;51.056;9.466;2023-02-15T01:16:07;98932.50;;;9.41;60.05
12973;BME280;6551;51.056;9.466;2023-02-15T01:18:33;98927.91;;;9.87;58.85
12973;BME280;6551;51.056;9.466;2023-02-15T01:21:00;98937.31;;;10.63;58.51
12973;BME280;6551;51.056;9.466;2023-02-15T01:23:27;98947.06;;;11.34;56.55
12973;BME280;6551;51.056;9.466;2023-02-15T01:25:53;98934.81;;;11.95;54.43
12973;BME280;6551;51.056;9.466;2023-02-15T01:28:20;98933.06;;;12.56;52.85
12973;BME280;6551;51.056;9.466;2023-02-15T01:30:47;98937.72;;;13.02;51.42
12973;BME280;6551;51.056;9.466;2023-02-15T01:33:14;98937.56;;;13.23;51.06
12973;BME280;6551;51.056;9.466;2023-02-15T01:35:44;98928.94;;;13.40;50.19
12973;BME280;6551;51.056;9.466;2023-02-15T01:38:13;98934.09;;;13.42;50.13
12973;BME280;6551;51.056;9.466;2023-02-15T01:40:58;98924.63;;;13.59;50.20
12973;BME280;6551;51.056;9.466;2023-02-15T01:43:50;98923.56;;;13.67;49.40
12973;BME280;6551;51.056;9.466;2023-02-15T01:46:20;98918.41;;;13.78;48.59
12973;BME280;6551;51.056;9.466;2023-02-15T01:48:59;98916.34;;;13.87;49.27
12973;BME280;6551;51.056;9.466;2023-02-15T01:51:30;98910.59;;;13.90;49.15
12973;BME280;6551;51.056;9.466;2023-02-15T01:54:19;98907.03;;;14.02;48.63
12973;BME280;6551;51.056;9.466;2023-02-15T01:56:48;98903.16;;;13.98;48.55
12973;BME280;6551;51.056;9.466;2023-02-15T01:59:20;98906.25;;;14.02;48.86
12973;BME280;6551;51.056;9.466;2023-02-15T02:01:50;98900.88;;;13.95;47.57
12973;BME280;6551;51.056;9.466;2023-02-15T02:04:54;98902.31;;;14.04;48.47
12973;BME280;6551;51.056;9.466;2023-02-15T02:07:38;98902.50;;;14.03;48.77
12973;BME280;6551;51.056;9.466;2023-02-15T02:10:07;98902.78;;;13.82;47.36
12973;BME280;6551;51.056;9.466;2023-02-15T02:12:34;98903.19;;;13.85;48.20
12973;BME280;6551;51.056;9.466;2023-02-15T02:15:02;98902.56;;;13.83;48.69
12973;BME280;6551;51.056;9.466;2023-02-15T02:31:10;98891.66;;;13.72;47.62
12973;BME280;6551;51.056;9.466;2023-02-15T02:36:40;98885.13;;;13.15;48.65
12973;BME280;6551;51.056;9.466;2023-02-15T02:42:44;98879.50;;;13.04;49.50
12973;BME280;6551;51.056;9.466;2023-02-15T02:45:28;98880.78;;;13.14;49.28
12973;BME280;6551;51.056;9.466;2023-02-15T02:48:10;98871.75;;;13.15;49.14
12973;BME280;6551;51.056;9.466;2023-02-15T02:50:40;98875.22;;;13.09;47.29
12973;BME280;6551;51.056;9.466;2023-02-15T02:53:08;98866.19;;;12.37;49.05
12973;BME280;6551;51.056;9.466;2023-02-15T02:55:42;98863.50;;;12.30;51.20
12973;BME280;6551;51.056;9.466;2023-02-15T02:58:24;98860.44;;;12.26;51.46
12973;BME280;6551;51.056;9.466;2023-02-15T03:01:09;98857.56;;;12.41;51.02
12973;BME280;6551;51.056;9.466;2023-02-15T03:03:55;98858.66;;;12.53;51.02
12973;BME280;6551;51.056;9.466;2023-02-15T03:06:31;98861.78;;;12.70;50.05
12973;BME280;6551;51.056;9.466;2023-02-15T03:09:17;98854.00;;;12.88;50.24
12973;BME280;6551;51.056;9.466;2023-02-15T03:11:47;98850.09;;;12.90;49.63
12973;BME280;6551;51.056;9.466;2023-02-15T03:14:16;98846.41;;;12.98;49.50
12973;BME280;6551;51.056;9.466;2023-02-15T03:16:47;98835.34;;;13.08;49.41
12973;BME280;6551;51.056;9.466;2023-02-15T03:19:22;98834.72;;;13.12;49.35
12973;BME280;6551;51.056;9.466;2023-02-15T03:21:51;98830.50;;;12.64;46.30
12973;BME280;6551;51.056;9.466;2023-02-15T03:24:32;98829.56;;;11.70;47.24
12973;BME280;6551;51.056;9.466;2023-02-15T03:27:05;98834.59;;;10.18;49.24
12973;BME280;6551;51.056;9.466;2023-02-15T03:29:34;98835.25;;;8.80;52.01
12973;BME280;6551;51.056;9.466;2023-02-15T03:32:05;98839.53;;;7.66;55.39
12973;BME280;6551;51.056;9.466;2023-02-15T03:34:36;98839.53;;;6.79;57.68
12973;BME280;6551;51.056;9.466;2023-02-15T03:40:19;98831.72;;;6.13;62.36
12973;BME280;6551;51.056;9.466;2023-02-15T03:45:52;98826.91;;;4.82;63.62
12973;BME280;6551;51.056;9.466;2023-02-15T03:48:33;98831.91;;;4.32;65.78
12973;BME280;6551;51.056;9.466;2023-02-15T03:51:14;98820.94;;;4.19;69.85
12973;BME280;6551;51.056;9.466;2023-02-15T03:54:10;98820.34;;;5.45;73.73
12973;BME280;6551;51.056;9.466;2023-02-15T03:56:41;98822.31;;;6.35;69.41
12973;BME280;6551;51.056;9.466;2023-02-15T03:59:08;98813.31;;;7.41;67.04
12973;BME280;6551;51.056;9.466;2023-02-15T04:04:48;98810.44;;;9.40;56.37
12973;BME280;6551;51.056;9.466;2023-02-15T04:07:15;98816.41;;;9.71;54.66
12973;BME280;6551;51.056;9.466;2023-02-15T04:09:43;98820.75;;;9.06;54.08
12973;BME280;6551;51.056;9.466;2023-02-15T04:12:27;98820.88;;;8.30;56.30
12973;BME280;6551;51.056;9.466;2023-02-15T04:14:55;98820.16;;;8.36;59.83
12973;BME280;6551;51.056;9.466;2023-02-15T04:17:41;98816.97;;;9.00;60.65
12973;BME280;6551;51.056;9.466;2023-02-15T04:20:08;98819.00;;;9.86;59.16
12973;BME280;6551;51.056;9.466;2023-02-15T04:22:54;98820.19;;;10.91;56.11
12973;BME280;6551;51.056;9.466;2023-02-15T04:25:40;98814.03;;;11.87;53.58
12973;BME280;6551;51.056;9.466;2023-02-15T04:28:06;98812.16;;;12.35;51.72
12973;BME280;6551;51.056;9.466;2023-02-15T04:30:33;98808.13;;;12.84;49.42
12973;BME280;6551;51.056;9.466;2023-02-15T04:32:59;98802.81;;;13.24;48.47
12973;BME280;6551;51.056;9.466;2023-02-15T04:35:26;98805.63;;;13.55;47.70
12973;BME280;6551;51.056;9.466;2023-02-15T04:37:52;98802.09;;;13.74;47.33
12973;BME280;6551;51.056;9.466;2023-02-15T04:40:19;98808.47;;;13.73;46.39
12973;BME280;6551;51.056;9.466;2023-02-15T04:42:48;98801.88;;;13.76;45.37
12973;BME280;6551;51.056;9.466;2023-02-15T04:45:16;98790.94;;;13.77;46.20
12973;BME280;6551;51.056;9.466;2023-02-15T04:47:44;98783.47;;;12.96;44.22
12973;BME280;6551;51.056;9.466;2023-02-15T04:50:10;98788.09;;;11.05;44.79
12973;BME280;6551;51.056;9.466;2023-02-15T04:52:38;98786.41;;;9.33;50.58
12973;BME280;6551;51.056;9.466;2023-02-15T04:55:05;98785.97;;;7.79;51.95
12973;BME280;6551;51.056;9.466;2023-02-15T04:57:31;98790.75;;;6.66;55.33
12973;BME280;6551;51.056;9.466;2023-02-15T04:59:57;98788.59;;;6.21;62.35
12973;BME280;6551;51.056;9.466;2023-02-15T05:02:25;98797.88;;;6.65;65.84
12973;BME280;6551;51.056;9.466;2023-02-15T05:04:52;98797.66;;;7.62;63.13
12973;BME280;6551;51.056;9.466;2023-02-15T05:07:18;98789.84;;;8.53;61.50
12973;BME280;6551;51.056;9.466;2023-02-15T05:09:47;98784.28;;;9.58;58.41
12973;BME280;6551;51.056;9.466;2023-02-15T05:12:13;98787.28;;;10.35;54.68
12973;BME280;6551;51.056;9.466;2023-02-15T05:14:40;98772.00;;;10.43;51.41
12973;BME280;6551;51.056;9.466;2023-02-15T05:17:06;98775.28;;;10.67;53.67
12973;BME280;6551;51.056;9.466;2023-02-15T05:19:32;98772.94;;;11.06;53.43
12973;BME280;6551;51.056;9.466;2023-02-15T05:21:58;98769.56;;;11.59;52.88
12973;BME280;6551;51.056;9.466;2023-02-15T05:24:24;98767.06;;;11.92;50.94
12973;BME280;6551;51.056;9.466;2023-02-15T05:27:11;98768.66;;;12.54;50.28
12973;BME280;6551;51.056;9.466;2023-02-15T05:29:56;98771.13;;;12.88;48.60
12973;BME280;6551;51.056;9.466;2023-02-15T05:32:25;98766.81;;;13.07;47.82
12973;BME280;6551;51.056;9.466;2023-02-15T05:34:52;98770.53;;;13.19;47.04
12973;BME280;6551;51.056;9.466;2023-02-15T05:37:18;98771.75;;;13.16;46.68
12973;BME280;6551;51.056;9.466;2023-02-15T05:39:44;98771.94;;;13.02;46.42
12973;BME280;6551;51.056;9.466;2023-02-15T05:42:11;98776.50;;;13.08;46.25
12973;BME280;6551;51.056;9.466;2023-02-15T05:44:36;98771.53;;;12.78;46.32
12973;BME280;6551;51.056;9.466;2023-02-15T05:47:02;98767.00;;;12.72;46.27
12973;BME280;6551;51.056;9.466;2023-02-15T05:49:29;98773.56;;;12.50;46.08
12973;BME280;6551;51.056;9.466;2023-02-15T05:51:56;98768.63;;;12.47;47.56
12973;BME280;6551;51.056;9.466;2023-02-15T05:54:21;98765.34;;;12.45;47.45
12973;BME280;6551;51.056;9.466;2023-02-15T05:56:49;98771.53;;;12.65;47.52
12973;BME280;6551;51.056;9.466;2023-02-15T05:59:15;98770.91;;;12.57;47.38
12973;BME280;6551;51.056;9.466;2023-02-15T06:01:42;98776.47;;;12.81;47.55
12973;BME280;6551;51.056;9.466;2023-02-15T06:04:12;98769.69;;;12.92;47.68
12973;BME280;6551;51.056;9.466;2023-02-15T06:06:40;98770.28;;;13.01;47.01
12973;BME280;6551;51.056;9.466;2023-02-15T06:09:07;98775.69;;;13.07;47.27
12973;BME280;6551;51.056;9.466;2023-02-15T06:11:33;98775.47;;;13.09;46.68
12973;BME280;6551;51.056;9.466;2023-02-15T06:13:59;98778.56;;;13.19;46.76
12973;BME280;6551;51.056;9.466;2023-02-15T06:16:25;98782.88;;;13.13;46.36
12973;BME280;6551;51.056;9.466;2023-02-15T06:18:51;98790.66;;;13.02;46.38
12973;BME280;6551;51.056;9.466;2023-02-15T06:21:17;98782.44;;;13.03;47.07
12973;BME280;6551;51.056;9.466;2023-02-15T06:23:44;98789.44;;;13.17;46.29
12973;BME280;6551;51.056;9.466;2023-02-15T06:26:10;98785.72;;;13.05;46.09
12973;BME280;6551;51.056;9.466;2023-02-15T06:28:37;98784.47;;;12.95;46.19
12973;BME280;6551;51.056;9.466;2023-02-15T06:31:03;98782.84;;;12.94;46.63
12973;BME280;6551;51.056;9.466;2023-02-15T06:33:30;98783.06;;;12.79;46.34
12973;BME280;6551;51.056;9.466;2023-02-15T06:35:58;98789.00;;;12.68;47.15
12973;BME280;6551;51.056;9.466;2023-02-15T06:38:24;98782.34;;;12.18;46.88
12973;BME280;6551;51.056;9.466;2023-02-15T06:40:51;98787.63;;;11.57;47.48
12973;BME280;6551;51.056;9.466;2023-02-15T06:43:17;98789.78;;;11.41;48.89
12973;BME280;6551;51.056;9.466;2023-02-15T06:45:45;98781.25;;;11.24;49.48
12973;BME280;6551;51.056;9.466;2023-02-15T06:48:11;98782.06;;;10.97;49.84
12973;BME280;6551;51.056;9.466;2023-02-15T06:50:37;98786.34;;;11.19;50.48
12973;BME280;6551;51.056;9.466;2023-02-15T06:53:03;98782.16;;;11.38;49.73
12973;BME280;6551;51.056;9.466;2023-02-15T06:55:31;98780.28;;;11.66;49.32
12973;BME280;6551;51.056;9.466;2023-02-15T06:57:57;98777.44;;;11.05;49.68
12973;BME280;6551;51.056;9.466;2023-02-15T07:00:23;98770.22;;;10.99;50.62
12973;BME280;6551;51.056;9.466;2023-02-15T07:02:58;98775.94;;;11.24;50.48
12973;BME280;6551;51.056;9.466;2023-02-15T07:05:27;98783.00;;;11.38;49.97
12973;BME280;6551;51.056;9.466;2023-02-15T07:07:57;98774.72;;;11.27;49.74
12973;BME280;6551;51.056;9.466;2023-02-15T07:10:24;98776.13;;;10.95;50.94
12973;BME280;6551;51.056;9.466;2023-02-15T07:12:53;98780.34;;;10.83;49.96
12973;BME280;6551;51.056;9.466;2023-02-15T07:15:21;98765.53;;;11.01;50.96
12973;BME280;6551;51.056;9.466;2023-02-15T07:17:47;98773.66;;;10.66;51.01
12973;BME280;6551;51.056;9.466;2023-02-15T07:20:17;98769.16;;;10.94;50.95
12973;BME280;6551;51.056;9.466;2023-02-15T07:22:45;98770.00;;;11.29;50.47
12973;BME280;6551;51.056;9.466;2023-02-15T07:25:12;98762.78;;;11.63;50.04
12973;BME280;6551;51.056;9.466;2023-02-15T07:27:39;98771.69;;;10.32;47.94
12973;BME280;6551;51.056;9.466;2023-02-15T07:30:11;98779.91;;;10.16;51.33
12973;BME280;6551;51.056;9.466;2023-02-15T07:32:37;98783.59;;;10.36;51.98
12973;BME280;6551;51.056;9.466;2023-02-15T07:35:25;98781.56;;;10.59;51.08
12973;BME280;6551;51.056;9.466;2023-02-15T07:37:51;98783.91;;;10.47;51.12
12973;BME280;6551;51.056;9.466;2023-02-15T07:40:19;98792.88;;;10.89;50.75
12973;BME280;6551;51.056;9.466;2023-02-15T07:42:48;98776.47;;;11.13;49.76
12973;BME280;6551;51.056;9.466;2023-02-15T07:45:14;98778.38;;;11.26;49.11
12973;BME280;6551;51.056;9.466;2023-02-15T07:47:41;98777.06;;;11.43;49.43
12973;BME280;6551;51.056;9.466;2023-02-15T07:50:09;98781.22;;;11.52;49.45
12973;BME280;6551;51.056;9.466;2023-02-15T07:52:35;98774.28;;;11.57;48.60
12973;BME280;6551;51.056;9.466;2023-02-15T07:55:01;98775.19;;;11.78;49.27
12973;BME280;6551;51.056;9.466;2023-02-15T07:57:28;98774.22;;;11.85;48.66
12973;BME280;6551;51.056;9.466;2023-02-15T07:59:54;98773.97;;;11.80;48.47
12973;BME280;6551;51.056;9.466;2023-02-15T08:02:20;98779.19;;;11.95;48.70
12973;BME280;6551;51.056;9.466;2023-02-15T08:04:46;98757.84;;;12.01;48.50
12973;BME280;6551;51.056;9.466;2023-02-15T08:07:15;98767.94;;;12.19;48.61
12973;BME280;6551;51.056;9.466;2023-02-15T08:09:41;98768.72;;;12.00;48.04
12973;BME280;6551;51.056;9.466;2023-02-15T08:12:08;98763.38;;;11.93;48.34
12973;BME280;6551;51.056;9.466;2023-02-15T08:14:36;98759.09;;;11.99;48.38
12973;BME280;6551;51.056;9.466;2023-02-15T08:17:05;98760.97;;;12.11;49.00
12973;BME280;6551;51.056;9.466;2023-02-15T08:19:34;98757.50;;;12.30;48.26
12973;BME280;6551;51.056;9.466;2023-02-15T08:22:11;98762.06;;;12.50;48.62
12973;BME280;6551;51.056;9.466;2023-02-15T08:24:40;98760.66;;;12.60;47.96
12973;BME280;6551;51.056;9.466;2023-02-15T08:27:11;98768.44;;;12.95;47.44
12973;BME280;6551;51.056;9.466;2023-02-15T08:29:38;98762.31;;;13.07;47.25
12973;BME280;6551;51.056;9.466;2023-02-15T08:32:11;98764.97;;;13.20;47.15
12973;BME280;6551;51.056;9.466;2023-02-15T08:34:41;98763.13;;;13.21;46.96
12973;BME280;6551;51.056;9.466;2023-02-15T08:37:10;98758.78;;;13.00;46.99
12973;BME280;6551;51.056;9.466;2023-02-15T08:39:37;98762.84;;;12.30;46.95
12973;BME280;6551;51.056;9.466;2023-02-15T08:42:06;98763.88;;;12.23;48.69
12973;BME280;6551;51.056;9.466;2023-02-15T08:44:32;98757.69;;;12.16;49.10
12973;BME280;6551;51.056;9.466;2023-02-15T08:46:59;98764.91;;;12.42;49.18
12973;BME280;6551;51.056;9.466;2023-02-15T08:49:30;98762.88;;;12.63;48.65
12973;BME280;6551;51.056;9.466;2023-02-15T08:51:56;98763.50;;;12.72;48.25
12973;BME280;6551;51.056;9.466;2023-02-15T08:54:22;98756.13;;;12.87;48.30
12973;BME280;6551;51.056;9.466;2023-02-15T08:56:49;98756.09;;;13.00;48.13
12973;BME280;6551;51.056;9.466;2023-02-15T08:59:20;98753.03;;;12.51;49.04
12973;BME280;6551;51.056;9.466;2023-02-15T09:01:48;98749.50;;;12.30;49.83
12973;BME280;6551;51.056;9.466;2023-02-15T09:04:16;98747.69;;;12.51;49.63
12973;BME280;6551;51.056;9.466;2023-02-15T09:06:44;98745.63;;;12.79;48.87
12973;BME280;6551;51.056;9.466;2023-02-15T09:09:12;98738.63;;;13.04;48.26
12973;BME280;6551;51.056;9.466;2023-02-15T09:11:42;98738.03;;;12.96;47.52
12973;BME280;6551;51.056;9.466;2023-02-15T09:14:20;98742.53;;;13.08;47.80
12973;BME280;6551;51.056;9.466;2023-02-15T09:16:48;98737.41;;;13.13;47.73
12973;BME280;6551;51.056;9.466;2023-02-15T09:19:18;98734.91;;;13.05;47.62
12973;BME280;6551;51.056;9.466;2023-02-15T09:21:47;98726.91;;;12.99;48.29
12973;BME280;6551;51.056;9.466;2023-02-15T09:24:14;98723.63;;;12.90;47.04
12973;BME280;6551;51.056;9.466;2023-02-15T09:26:46;98719.13;;;12.64;48.69
12973;BME280;6551;51.056;9.466;2023-02-15T09:29:14;98717.25;;;12.39;48.82
12973;BME280;6551;51.056;9.466;2023-02-15T09:31:43;98717.47;;;12.57;49.36
12973;BME280;6551;51.056;9.466;2023-02-15T09:34:12;98716.63;;;12.37;49.34
12973;BME280;6551;51.056;9.466;2023-02-15T09:36:40;98717.97;;;11.39;49.08
12973;BME280;6551;51.056;9.466;2023-02-15T09:39:24;98716.78;;;11.07;52.35
12973;BME280;6551;51.056;9.466;2023-02-15T09:54:03;98724.25;;;12.92;48.79
12973;BME280;6551;51.056;9.466;2023-02-15T09:56:55;98729.78;;;13.04;48.17
12973;BME280;6551;51.056;9.466;2023-02-15T10:09:03;98726.69;;;13.00;47.64
12973;BME280;6551;51.056;9.466;2023-02-15T10:24:06;98722.41;;;12.60;48.52
12973;BME280;6551;51.056;9.466;2023-02-15T10:26:47;98716.09;;;11.81;49.56
12973;BME280;6551;51.056;9.466;2023-02-15T10:29:27;98719.88;;;11.99;50.32
12973;BME280;6551;51.056;9.466;2023-02-15T10:32:22;98715.38;;;12.19;50.04
12973;BME280;6551;51.056;9.466;2023-02-15T10:35:20;98707.94;;;11.95;50.35
12973;BME280;6551;51.056;9.466;2023-02-15T10:50:52;98709.66;;;12.49;49.61
12973;BME280;6551;51.056;9.466;2023-02-15T10:54:02;98698.16;;;12.42;49.73
12973;BME280;6551;51.056;9.466;2023-02-15T10:56:58;98700.22;;;12.59;49.47
12973;BME280;6551;51.056;9.466;2023-02-15T11:00:02;98693.59;;;12.95;49.06
12973;BME280;6551;51.056;9.466;2023-02-15T11:03:06;98691.56;;;12.90;48.72
12973;BME280;6551;51.056;9.466;2023-02-15T11:06:07;98693.22;;;12.39;49.78
12973;BME280;6551;51.056;9.466;2023-02-15T11:09:03;98692.41;;;12.45;49.81
12973;BME280;6551;51.056;9.466;2023-02-15T11:11:37;98700.22;;;12.66;49.53
12973;BME280;6551;51.056;9.466;2023-02-15T11:17:39;98695.66;;;12.93;49.52
12973;BME280;6551;51.056;9.466;2023-02-15T11:22:53;98699.91;;;11.82;50.77
12973;BME280;6551;51.056;9.466;2023-02-15T11:25:32;98681.47;;;12.00;50.99
12973;BME280;6551;51.056;9.466;2023-02-15T11:28:06;98683.78;;;11.56;51.57
12973;BME280;6551;51.056;9.466;2023-02-15T11:30:43;98690.06;;;11.42;53.14
12973;BME280;6551;51.056;9.466;2023-02-15T11:33:24;98682.19;;;11.68;52.46
12973;BME280;6551;51.056;9.466;2023-02-15T11:36:12;98689.50;;;11.46;52.24
12973;BME280;6551;51.056;9.466;2023-02-15T11:38:39;98686.44;;;11.49;52.71
12973;BME280;6551;51.056;9.466;2023-02-15T11:41:21;98686.03;;;11.11;52.44
12973;BME280;6551;51.056;9.466;2023-02-15T11:44:26;98686.66;;;11.54;53.18
12973;BME280;6551;51.056;9.466;2023-02-15T11:46:55;98691.13;;;12.01;52.32
12973;BME280;6551;51.056;9.466;2023-02-15T11:49:31;98677.41;;;12.37;52.06
12973;BME280;6551;51.056;9.466;2023-02-15T11:52:12;98680.50;;;12.60;51.20
12973;BME280;6551;51.056;9.466;2023-02-15T11:54:42;98680.69;;;12.65;50.40
12973;BME280;6551;51.056;9.466;2023-02-15T11:59:48;98682.72;;;12.04;51.66
12973;BME280;6551;51.056;9.466;2023-02-15T12:02:33;98680.63;;;11.87;52.55
12973;BME280;6551;51.056;9.466;2023-02-15T12:05:09;98675.31;;;11.93;52.85
12973;BME280;6551;51.056;9.466;2023-02-15T12:08:01;98683.34;;;12.19;52.15
12973;BME280;6551;51.056;9.466;2023-02-15T12:11:00;98680.28;;;12.29;51.56
12973;BME280;6551;51.056;9.466;2023-02-15T12:13:28;98675.03;;;11.75;52.09
12973;BME280;6551;51.056;9.466;2023-02-15T12:15:58;98675.91;;;11.82;52.87
12973;BME280;6551;51.056;9.466;2023-02-15T12:18:41;98681.03;;;11.97;52.22
12973;BME280;6551;51.056;9.466;2023-02-15T12:21:34;98667.53;;;12.05;52.20
12973;BME280;6551;51.056;9.466;2023-02-15T12:26:58;98673.47;;;12.20;51.93
12973;BME280;6551;51.056;9.466;2023-02-15T12:29:29;98672.06;;;12.24;51.73
12973;BME280;6551;51.056;9.466;2023-02-15T12:31:56;98680.28;;;12.49;51.19
12973;BME280;6551;51.056;9.466;2023-02-15T12:34:36;98666.09;;;12.61;50.88
12973;BME280;6551;51.056;9.466;2023-02-15T12:37:15;98657.41;;;12.85;50.66
12973;BME280;6551;51.056;9.466;2023-02-15T12:40:22;98658.41;;;13.17;50.17
12973;BME280;6551;51.056;9.466;2023-02-15T12:42:50;98655.97;;;12.83;50.42
12973;BME280;6551;51.056;9.466;2023-02-15T12:45:33;98654.63;;;13.38;49.95
12973;BME280;6551;51.056;9.466;2023-02-15T12:48:25;98658.09;;;13.45;48.74
12973;BME280;6551;51.056;9.466;2023-02-15T12:50:52;98655.97;;;13.60;48.96
12973;BME280;6551;51.056;9.466;2023-02-15T12:53:35;98653.25;;;13.67;48.60
12973;BME280;6551;51.056;9.466;2023-02-15T12:56:05;98649.41;;;13.56;49.23
12973;BME280;6551;51.056;9.466;2023-02-15T12:58:38;98639.28;;;13.96;48.83
12973;BME280;6551;51.056;9.466;2023-02-15T13:01:19;98630.38;;;13.71;48.45
12973;BME280;6551;51.056;9.466;2023-02-15T13:04:05;98627.84;;;13.82;49.06
12973;BME280;6551;51.056;9.466;2023-02-15T13:06:54;98629.88;;;14.18;48.37
12973;BME280;6551;51.056;9.466;2023-02-15T13:12:25;98626.78;;;14.46;47.23
12973;BME280;6551;51.056;9.466;2023-02-15T13:14:57;98614.66;;;14.12;47.62
12973;BME280;6551;51.056;9.466;2023-02-15T13:17:32;98617.81;;;14.34;47.61
12973;BME280;6551;51.056;9.466;2023-02-15T13:20:20;98605.66;;;14.31;47.96
12973;BME280;6551;51.056;9.466;2023-02-15T13:23:03;98605.63;;;14.06;48.29
12973;BME280;6551;51.056;9.466;2023-02-15T13:25:44;98599.53;;;14.24;48.29
12973;BME280;6551;51.056;9.466;2023-02-15T13:28:18;98585.31;;;14.24;48.08
12973;BME280;6551;51.056;9.466;2023-02-15T13:30:48;98585.47;;;14.29;48.15
12973;BME280;6551;51.056;9.466;2023-02-15T13:33:32;98574.91;;;14.09;47.79
12973;BME280;6551;51.056;9.466;2023-02-15T13:39:22;98581.09;;;13.47;49.17
12973;BME280;6551;51.056;9.466;2023-02-15T13:48:34;98575.72;;;13.54;49.64
12973;BME280;6551;51.056;9.466;2023-02-15T14:00:44;98565.09;;;12.83;51.21
12973;BME280;6551;51.056;9.466;2023-02-15T14:09:40;98570.50;;;12.76;51.93
12973;BME280;6551;51.056;9.466;2023-02-15T14:17:29;98559.81;;;12.70;52.17
12973;BME280;6551;51.056;9.466;2023-02-15T14:20:07;98561.47;;;12.64;52.60
12973;BME280;6551;51.056;9.466;2023-02-15T14:25:48;98559.25;;;12.42;52.70
12973;BME280;6551;51.056;9.466;2023-02-15T14:28:23;98549.00;;;12.32;52.89
12973;BME280;6551;51.056;9.466;2023-02-15T14:30:53;98559.09;;;12.04;53.17
12973;BME280;6551;51.056;9.466;2023-02-15T14:33:38;98552.31;;;12.14;53.43
12973;BME280;6551;51.056;9.466;2023-02-15T14:36:15;98561.56;;;11.92;53.86
12973;BME280;6551;51.056;9.466;2023-02-15T14:42:30;98552.94;;;11.70;54.25
12973;BME280;6551;51.056;9.466;2023-02-15T14:46:06;98551.44;;;11.61;54.49
12973;BME280;6551;51.056;9.466;2023-02-15T14:48:39;98549.19;;;11.65;54.92
12973;BME280;6551;51.056;9.466;2023-02-15T14:51:09;98556.59;;;11.63;54.80
12973;BME280;6551;51.056;9.466;2023-02-15T14:53:39;98553.97;;;11.76;54.55
12973;BME280;6551;51.056;9.466;2023-02-15T14:56:17;98561.72;;;11.64;54.81
12973;BME280;6551;51.056;9.466;2023-02-15T15:01:35;98547.97;;;11.67;55.11
12973;BME280;6551;51.056;9.466;2023-02-15T15:04:11;98543.91;;;11.71;54.94
12973;BME280;6551;51.056;9.466;2023-02-15T15:06:41;98549.03;;;11.80;54.88
12973;BME280;6551;51.056;9.466;2023-02-15T15:09:29;98551.91;;;11.85;54.61
12973;BME280;6551;51.056;9.466;2023-02-15T15:14:51;98548.00;;;11.81;54.43
12973;BME280;6551;51.056;9.466;2023-02-15T15:20:41;98550.88;;;11.86;54.52
12973;BME280;6551;51.056;9.466;2023-02-15T15:34:24;98545.06;;;11.43;55.34
12973;BME280;6551;51.056;9.466;2023-02-15T15:49:08;98545.91;;;11.63;55.25
12973;BME280;6551;51.056;9.466;2023-02-15T15:51:40;98549.44;;;11.70;54.97
12973;BME280;6551;51.056;9.466;2023-02-15T15:54:21;98543.91;;;11.78;54.78
12973;BME280;6551;51.056;9.466;2023-02-15T15:57:00;98538.34;;;11.73;54.84
12973;BME280;6551;51.056;9.466;2023-02-15T15:59:33;98538.31;;;11.66;54.76
12973;BME280;6551;51.056;9.466;2023-02-15T16:02:06;98529.69;;;11.64;54.98
12973;BME280;6551;51.056;9.466;2023-02-15T16:04:35;98529.09;;;11.62;54.88
12973;BME280;6551;51.056;9.466;2023-02-15T16:10:06;98528.50;;;11.93;54.44
12973;BME280;6551;51.056;9.466;2023-02-15T16:12:35;98521.31;;;12.07;54.07
12973;BME280;6551;51.056;9.466;2023-02-15T16:18:03;98528.22;;;12.47;53.46
12973;BME280;6551;51.056;9.466;2023-02-15T16:20:34;98538.44;;;12.63;52.71
12973;BME280;6551;51.056;9.466;2023-02-15T16:26:35;98530.09;;;12.98;52.13
12973;BME280;6551;51.056;9.466;2023-02-15T16:29:31;98530.94;;;12.98;51.98
12973;BME280;6551;51.056;9.466;2023-02-15T16:32:15;98535.63;;;13.03;51.81
12973;BME280;6551;51.056;9.466;2023-02-15T16:35:00;98530.53;;;13.08;51.88